sensor_id;sensor_type;location;lat;lon;timestamp;P1;durP1;ratioP1;P2;durP2;ratioP2
59828;SDS011;45708;51.848;107.620;2022-09-09T00:03:31;15.02;;;9.02;;
59828;SDS011;45708;51.848;107.620;2022-09-09T00:13:53;17.90;;;8.13;;
59828;SDS011;45708;51.848;107.620;2022-09-09T00:19:06;14.60;;;10.73;;
59828;SDS011;45708;51.848;107.620;2022-09-09T00:29:51;15.77;;;9.13;;
59828;SDS011;45708;51.848;107.620;2022-09-09T00:35:02;17.50;;;9.88;;
59828;SDS011;45708;51.848;107.620;2022-09-09T00:40:30;13.25;;;8.98;;
59828;SDS011;45708;51.848;107.620;2022-09-09T00:51:00;13.20;;;8.60;;
59828;SDS011;45708;51.848;107.620;2022-09-09T00:56:14;12.43;;;8.63;;
59828;SDS011;45708;51.848;107.620;2022-09-09T01:01:20;13.00;;;7.68;;
59828;SDS011;45708;51.848;107.620;2022-09-09T01:06:31;14.52;;;8.02;;
59828;SDS011;45708;51.848;107.620;2022-09-09T01:16:40;11.82;;;8.20;;
59828;SDS011;45708;51.848;107.620;2022-09-09T01:21:49;9.52;;;7.25;;
59828;SDS011;45708;51.848;107.620;2022-09-09T01:26:56;8.05;;;6.20;;
59828;SDS011;45708;51.848;107.620;2022-09-09T01:32:35;10.20;;;6.07;;
59828;SDS011;45708;51.848;107.620;2022-09-09T01:37:42;11.13;;;6.30;;
59828;SDS011;45708;51.848;107.620;2022-09-09T01:42:43;6.43;;;5.40;;
59828;SDS011;45708;51.848;107.620;2022-09-09T01:47:44;6.25;;;5.45;;
59828;SDS011;45708;51.848;107.620;2022-09-09T01:52:47;11.23;;;6.22;;
59828;SDS011;45708;51.848;107.620;2022-09-09T02:03:27;10.73;;;6.35;;
59828;SDS011;45708;51.848;107.620;2022-09-09T02:08:33;8.25;;;5.55;;
59828;SDS011;45708;51.848;107.620;2022-09-09T02:13:51;6.30;;;4.60;;
59828;SDS011;45708;51.848;107.620;2022-09-09T02:19:02;13.07;;;7.15;;
59828;SDS011;45708;51.848;107.620;2022-09-09T02:24:11;10.70;;;6.75;;
59828;SDS011;45708;51.848;107.620;2022-09-09T02:29:19;9.75;;;6.45;;
59828;SDS011;45708;51.848;107.620;2022-09-09T02:34:28;9.50;;;6.38;;
59828;SDS011;45708;51.848;107.620;2022-09-09T02:39:31;9.68;;;5.25;;
59828;SDS011;45708;51.848;107.620;2022-09-09T02:44:32;7.25;;;4.70;;
59828;SDS011;45708;51.848;107.620;2022-09-09T02:55:04;6.10;;;4.63;;
59828;SDS011;45708;51.848;107.620;2022-09-09T03:00:12;5.90;;;4.90;;
59828;SDS011;45708;51.848;107.620;2022-09-09T03:05:13;5.38;;;4.72;;
59828;SDS011;45708;51.848;107.620;2022-09-09T03:10:14;5.05;;;4.50;;
59828;SDS011;45708;51.848;107.620;2022-09-09T03:15:15;5.32;;;4.43;;
59828;SDS011;45708;51.848;107.620;2022-09-09T03:20:17;5.38;;;4.55;;
59828;SDS011;45708;51.848;107.620;2022-09-09T03:25:18;5.53;;;4.72;;
59828;SDS011;45708;51.848;107.620;2022-09-09T03:30:18;6.97;;;4.28;;
59828;SDS011;45708;51.848;107.620;2022-09-09T03:35:20;5.78;;;4.82;;
59828;SDS011;45708;51.848;107.620;2022-09-09T03:40:21;5.20;;;4.30;;
59828;SDS011;45708;51.848;107.620;2022-09-09T03:45:22;6.88;;;5.30;;
59828;SDS011;45708;51.848;107.620;2022-09-09T03:50:23;8.95;;;5.53;;
59828;SDS011;45708;51.848;107.620;2022-09-09T03:55:24;7.65;;;4.60;;
59828;SDS011;45708;51.848;107.620;2022-09-09T04:00:25;7.40;;;5.00;;
59828;SDS011;45708;51.848;107.620;2022-09-09T04:05:25;6.57;;;5.20;;
59828;SDS011;45708;51.848;107.620;2022-09-09T04:10:27;5.13;;;4.63;;
59828;SDS011;45708;51.848;107.620;2022-09-09T04:15:28;7.45;;;4.78;;
59828;SDS011;45708;51.848;107.620;2022-09-09T04:20:28;7.97;;;5.28;;
59828;SDS011;45708;51.848;107.620;2022-09-09T04:25:29;6.90;;;5.00;;
59828;SDS011;45708;51.848;107.620;2022-09-09T04:30:30;7.88;;;5.05;;
59828;SDS011;45708;51.848;107.620;2022-09-09T04:35:31;6.40;;;5.30;;
59828;SDS011;45708;51.848;107.620;2022-09-09T04:40:32;8.95;;;4.82;;
59828;SDS011;45708;51.848;107.620;2022-09-09T04:45:33;5.63;;;4.53;;
59828;SDS011;45708;51.848;107.620;2022-09-09T04:50:33;7.53;;;5.38;;
59828;SDS011;45708;51.848;107.620;2022-09-09T04:55:34;8.45;;;5.85;;
59828;SDS011;45708;51.848;107.620;2022-09-09T05:00:37;7.53;;;4.95;;
59828;SDS011;45708;51.848;107.620;2022-09-09T05:05:38;9.00;;;5.57;;
59828;SDS011;45708;51.848;107.620;2022-09-09T05:10:39;6.82;;;5.40;;
59828;SDS011;45708;51.848;107.620;2022-09-09T05:15:39;5.55;;;4.95;;
59828;SDS011;45708;51.848;107.620;2022-09-09T05:20:40;6.65;;;4.53;;
59828;SDS011;45708;51.848;107.620;2022-09-09T05:25:41;6.05;;;4.82;;
59828;SDS011;45708;51.848;107.620;2022-09-09T05:30:42;6.75;;;5.13;;
59828;SDS011;45708;51.848;107.620;2022-09-09T05:35:43;7.13;;;4.68;;
59828;SDS011;45708;51.848;107.620;2022-09-09T05:40:47;6.13;;;5.13;;
59828;SDS011;45708;51.848;107.620;2022-09-09T05:45:48;8.73;;;4.88;;
59828;SDS011;45708;51.848;107.620;2022-09-09T05:50:58;5.32;;;4.38;;
59828;SDS011;45708;51.848;107.620;2022-09-09T05:56:03;9.20;;;4.72;;
59828;SDS011;45708;51.848;107.620;2022-09-09T06:06:11;6.22;;;4.43;;
59828;SDS011;45708;51.848;107.620;2022-09-09T06:11:35;5.47;;;4.97;;
59828;SDS011;45708;51.848;107.620;2022-09-09T06:16:35;5.72;;;4.47;;
59828;SDS011;45708;51.848;107.620;2022-09-09T06:21:36;4.80;;;4.13;;
59828;SDS011;45708;51.848;107.620;2022-09-09T06:26:38;5.72;;;4.63;;
59828;SDS011;45708;51.848;107.620;2022-09-09T06:31:39;6.43;;;4.60;;
59828;SDS011;45708;51.848;107.620;2022-09-09T06:36:40;6.50;;;4.43;;
59828;SDS011;45708;51.848;107.620;2022-09-09T06:41:41;5.65;;;4.10;;
59828;SDS011;45708;51.848;107.620;2022-09-09T06:46:42;6.22;;;4.45;;
59828;SDS011;45708;51.848;107.620;2022-09-09T06:51:43;6.63;;;4.60;;
59828;SDS011;45708;51.848;107.620;2022-09-09T06:56:44;4.85;;;4.25;;
59828;SDS011;45708;51.848;107.620;2022-09-09T07:01:45;5.25;;;4.57;;
59828;SDS011;45708;51.848;107.620;2022-09-09T07:06:46;5.88;;;4.50;;
59828;SDS011;45708;51.848;107.620;2022-09-09T07:11:48;7.13;;;4.70;;
59828;SDS011;45708;51.848;107.620;2022-09-09T07:16:51;7.00;;;4.70;;
59828;SDS011;45708;51.848;107.620;2022-09-09T07:21:52;7.82;;;4.68;;
59828;SDS011;45708;51.848;107.620;2022-09-09T07:26:53;5.22;;;4.30;;
59828;SDS011;45708;51.848;107.620;2022-09-09T07:31:53;7.28;;;4.40;;
59828;SDS011;45708;51.848;107.620;2022-09-09T07:36:54;5.60;;;3.92;;
59828;SDS011;45708;51.848;107.620;2022-09-09T07:41:55;6.03;;;4.53;;
59828;SDS011;45708;51.848;107.620;2022-09-09T07:46:56;5.60;;;4.68;;
59828;SDS011;45708;51.848;107.620;2022-09-09T07:51:57;7.70;;;5.43;;
59828;SDS011;45708;51.848;107.620;2022-09-09T07:56:58;4.70;;;4.30;;
59828;SDS011;45708;51.848;107.620;2022-09-09T08:01:59;8.88;;;5.00;;
59828;SDS011;45708;51.848;107.620;2022-09-09T08:07:00;7.68;;;5.03;;
59828;SDS011;45708;51.848;107.620;2022-09-09T08:12:01;5.68;;;4.65;;
59828;SDS011;45708;51.848;107.620;2022-09-09T08:17:02;6.95;;;4.63;;
59828;SDS011;45708;51.848;107.620;2022-09-09T08:22:03;6.72;;;5.13;;
59828;SDS011;45708;51.848;107.620;2022-09-09T08:27:04;4.13;;;3.72;;
59828;SDS011;45708;51.848;107.620;2022-09-09T08:32:05;4.93;;;4.10;;
59828;SDS011;45708;51.848;107.620;2022-09-09T08:37:06;5.75;;;3.90;;
59828;SDS011;45708;51.848;107.620;2022-09-09T08:52:30;8.85;;;4.20;;
59828;SDS011;45708;51.848;107.620;2022-09-09T08:57:39;4.03;;;3.58;;
59828;SDS011;45708;51.848;107.620;2022-09-09T09:08:29;7.10;;;4.03;;
59828;SDS011;45708;51.848;107.620;2022-09-09T09:18:57;5.70;;;4.00;;
59828;SDS011;45708;51.848;107.620;2022-09-09T09:23:59;5.70;;;4.10;;
59828;SDS011;45708;51.848;107.620;2022-09-09T09:29:07;6.13;;;3.72;;
59828;SDS011;45708;51.848;107.620;2022-09-09T09:34:17;7.63;;;3.90;;
59828;SDS011;45708;51.848;107.620;2022-09-09T09:39:29;5.50;;;4.25;;
59828;SDS011;45708;51.848;107.620;2022-09-09T09:44:31;7.07;;;4.15;;
59828;SDS011;45708;51.848;107.620;2022-09-09T09:49:32;5.28;;;4.45;;
59828;SDS011;45708;51.848;107.620;2022-09-09T09:54:36;7.47;;;4.00;;
59828;SDS011;45708;51.848;107.620;2022-09-09T09:59:39;9.70;;;4.35;;
59828;SDS011;45708;51.848;107.620;2022-09-09T10:04:40;8.80;;;3.80;;
59828;SDS011;45708;51.848;107.620;2022-09-09T10:09:41;7.40;;;5.20;;
59828;SDS011;45708;51.848;107.620;2022-09-09T10:14:45;11.68;;;4.38;;
59828;SDS011;45708;51.848;107.620;2022-09-09T10:36:16;5.20;;;3.38;;
59828;SDS011;45708;51.848;107.620;2022-09-09T10:52:17;7.70;;;3.83;;
59828;SDS011;45708;51.848;107.620;2022-09-09T11:02:47;6.28;;;4.05;;
59828;SDS011;45708;51.848;107.620;2022-09-09T11:24:30;7.07;;;4.28;;
59828;SDS011;45708;51.848;107.620;2022-09-09T11:40:57;9.18;;;4.53;;
59828;SDS011;45708;51.848;107.620;2022-09-09T11:46:04;7.22;;;4.95;;
59828;SDS011;45708;51.848;107.620;2022-09-09T11:56:12;9.98;;;5.40;;
59828;SDS011;45708;51.848;107.620;2022-09-09T12:06:33;15.60;;;6.20;;
59828;SDS011;45708;51.848;107.620;2022-09-09T12:11:52;17.65;;;7.15;;
59828;SDS011;45708;51.848;107.620;2022-09-09T12:27:31;9.50;;;4.15;;
59828;SDS011;45708;51.848;107.620;2022-09-09T12:32:36;8.25;;;4.90;;
59828;SDS011;45708;51.848;107.620;2022-09-09T12:37:51;7.88;;;5.07;;
59828;SDS011;45708;51.848;107.620;2022-09-09T12:42:55;5.00;;;3.28;;
59828;SDS011;45708;51.848;107.620;2022-09-09T12:48:06;9.63;;;4.95;;
59828;SDS011;45708;51.848;107.620;2022-09-09T12:58:36;7.45;;;4.15;;
59828;SDS011;45708;51.848;107.620;2022-09-09T13:03:42;7.90;;;5.57;;
59828;SDS011;45708;51.848;107.620;2022-09-09T13:08:43;6.82;;;4.50;;
59828;SDS011;45708;51.848;107.620;2022-09-09T13:13:50;6.53;;;3.05;;
59828;SDS011;45708;51.848;107.620;2022-09-09T13:18:52;11.65;;;3.53;;
59828;SDS011;45708;51.848;107.620;2022-09-09T13:23:53;4.50;;;2.80;;
59828;SDS011;45708;51.848;107.620;2022-09-09T13:28:54;3.88;;;2.85;;
59828;SDS011;45708;51.848;107.620;2022-09-09T13:34:14;4.88;;;3.00;;
59828;SDS011;45708;51.848;107.620;2022-09-09T13:39:25;2.80;;;2.20;;
59828;SDS011;45708;51.848;107.620;2022-09-09T13:49:29;5.28;;;2.80;;
59828;SDS011;45708;51.848;107.620;2022-09-09T13:54:30;6.00;;;2.22;;
59828;SDS011;45708;51.848;107.620;2022-09-09T13:59:31;4.40;;;2.35;;
59828;SDS011;45708;51.848;107.620;2022-09-09T14:04:33;2.58;;;2.05;;
59828;SDS011;45708;51.848;107.620;2022-09-09T14:09:34;5.43;;;4.88;;
59828;SDS011;45708;51.848;107.620;2022-09-09T14:14:35;3.97;;;2.25;;
59828;SDS011;45708;51.848;107.620;2022-09-09T14:19:35;4.95;;;2.10;;
59828;SDS011;45708;51.848;107.620;2022-09-09T14:24:36;3.25;;;2.33;;
59828;SDS011;45708;51.848;107.620;2022-09-09T14:29:37;3.90;;;2.10;;
59828;SDS011;45708;51.848;107.620;2022-09-09T14:34:38;2.50;;;1.70;;
59828;SDS011;45708;51.848;107.620;2022-09-09T14:39:39;6.10;;;1.88;;
59828;SDS011;45708;51.848;107.620;2022-09-09T14:44:39;7.30;;;2.05;;
59828;SDS011;45708;51.848;107.620;2022-09-09T14:49:40;2.55;;;1.80;;
59828;SDS011;45708;51.848;107.620;2022-09-09T14:54:41;3.17;;;1.40;;
59828;SDS011;45708;51.848;107.620;2022-09-09T14:59:42;2.67;;;1.90;;
59828;SDS011;45708;51.848;107.620;2022-09-09T15:04:43;2.22;;;1.83;;
59828;SDS011;45708;51.848;107.620;2022-09-09T15:09:44;3.80;;;2.25;;
59828;SDS011;45708;51.848;107.620;2022-09-09T15:14:45;1.77;;;1.67;;
59828;SDS011;45708;51.848;107.620;2022-09-09T15:19:46;1.83;;;1.48;;
59828;SDS011;45708;51.848;107.620;2022-09-09T15:24:46;3.25;;;1.80;;
59828;SDS011;45708;51.848;107.620;2022-09-09T15:29:47;4.38;;;1.90;;
59828;SDS011;45708;51.848;107.620;2022-09-09T15:34:48;3.00;;;1.70;;
59828;SDS011;45708;51.848;107.620;2022-09-09T15:39:49;3.92;;;2.10;;
59828;SDS011;45708;51.848;107.620;2022-09-09T15:44:50;2.17;;;1.70;;
59828;SDS011;45708;51.848;107.620;2022-09-09T15:49:51;5.03;;;1.80;;
59828;SDS011;45708;51.848;107.620;2022-09-09T15:54:51;2.53;;;1.42;;
59828;SDS011;45708;51.848;107.620;2022-09-09T15:59:52;1.90;;;1.60;;
59828;SDS011;45708;51.848;107.620;2022-09-09T16:04:53;2.35;;;1.75;;
59828;SDS011;45708;51.848;107.620;2022-09-09T16:09:54;2.05;;;1.50;;
59828;SDS011;45708;51.848;107.620;2022-09-09T16:14:55;1.95;;;1.58;;
59828;SDS011;45708;51.848;107.620;2022-09-09T16:19:56;2.88;;;1.90;;
59828;SDS011;45708;51.848;107.620;2022-09-09T16:24:56;2.83;;;1.40;;
59828;SDS011;45708;51.848;107.620;2022-09-09T16:29:57;2.08;;;1.58;;
59828;SDS011;45708;51.848;107.620;2022-09-09T16:34:58;2.03;;;1.60;;
59828;SDS011;45708;51.848;107.620;2022-09-09T16:39:59;2.20;;;1.80;;
59828;SDS011;45708;51.848;107.620;2022-09-09T16:45:00;5.28;;;2.05;;
59828;SDS011;45708;51.848;107.620;2022-09-09T16:50:00;2.50;;;1.52;;
59828;SDS011;45708;51.848;107.620;2022-09-09T16:55:01;1.80;;;1.58;;
59828;SDS011;45708;51.848;107.620;2022-09-09T17:00:03;3.28;;;1.58;;
59828;SDS011;45708;51.848;107.620;2022-09-09T17:05:05;3.67;;;1.60;;
59828;SDS011;45708;51.848;107.620;2022-09-09T17:10:06;3.55;;;2.00;;
59828;SDS011;45708;51.848;107.620;2022-09-09T17:15:08;3.30;;;1.90;;
59828;SDS011;45708;51.848;107.620;2022-09-09T17:20:09;2.60;;;1.20;;
59828;SDS011;45708;51.848;107.620;2022-09-09T17:25:10;3.28;;;1.90;;
59828;SDS011;45708;51.848;107.620;2022-09-09T17:30:11;2.50;;;1.65;;
59828;SDS011;45708;51.848;107.620;2022-09-09T17:35:12;2.03;;;1.67;;
59828;SDS011;45708;51.848;107.620;2022-09-09T17:40:13;2.05;;;1.65;;
59828;SDS011;45708;51.848;107.620;2022-09-09T17:45:14;2.65;;;1.70;;
59828;SDS011;45708;51.848;107.620;2022-09-09T17:50:15;2.53;;;1.58;;
59828;SDS011;45708;51.848;107.620;2022-09-09T17:55:16;2.55;;;1.30;;
59828;SDS011;45708;51.848;107.620;2022-09-09T18:00:17;1.67;;;1.42;;
59828;SDS011;45708;51.848;107.620;2022-09-09T18:05:18;2.08;;;1.42;;
59828;SDS011;45708;51.848;107.620;2022-09-09T18:10:19;2.90;;;1.73;;
59828;SDS011;45708;51.848;107.620;2022-09-09T18:15:19;2.00;;;1.63;;
59828;SDS011;45708;51.848;107.620;2022-09-09T18:20:20;2.00;;;1.48;;
59828;SDS011;45708;51.848;107.620;2022-09-09T18:25:24;2.72;;;1.80;;
59828;SDS011;45708;51.848;107.620;2022-09-09T18:30:24;2.92;;;1.73;;
59828;SDS011;45708;51.848;107.620;2022-09-09T18:35:25;3.00;;;1.40;;
59828;SDS011;45708;51.848;107.620;2022-09-09T18:40:28;2.70;;;1.85;;
59828;SDS011;45708;51.848;107.620;2022-09-09T18:45:34;1.80;;;1.55;;
59828;SDS011;45708;51.848;107.620;2022-09-09T18:50:35;3.97;;;1.75;;
59828;SDS011;45708;51.848;107.620;2022-09-09T18:55:36;2.10;;;1.90;;
59828;SDS011;45708;51.848;107.620;2022-09-09T19:00:37;2.40;;;1.75;;
59828;SDS011;45708;51.848;107.620;2022-09-09T19:05:39;5.07;;;1.50;;
59828;SDS011;45708;51.848;107.620;2022-09-09T19:10:40;2.83;;;1.73;;
59828;SDS011;45708;51.848;107.620;2022-09-09T19:15:41;2.97;;;1.45;;
59828;SDS011;45708;51.848;107.620;2022-09-09T19:20:41;4.82;;;1.38;;
59828;SDS011;45708;51.848;107.620;2022-09-09T19:25:42;2.78;;;1.70;;
59828;SDS011;45708;51.848;107.620;2022-09-09T19:30:43;5.20;;;1.70;;
59828;SDS011;45708;51.848;107.620;2022-09-09T19:35:44;2.97;;;1.55;;
59828;SDS011;45708;51.848;107.620;2022-09-09T19:40:45;2.75;;;1.58;;
59828;SDS011;45708;51.848;107.620;2022-09-09T19:45:58;2.25;;;1.40;;
59828;SDS011;45708;51.848;107.620;2022-09-09T19:51:01;1.73;;;1.45;;
59828;SDS011;45708;51.848;107.620;2022-09-09T19:56:06;2.85;;;1.60;;
59828;SDS011;45708;51.848;107.620;2022-09-09T20:01:12;2.25;;;1.83;;
59828;SDS011;45708;51.848;107.620;2022-09-09T20:06:18;3.63;;;1.70;;
59828;SDS011;45708;51.848;107.620;2022-09-09T20:11:20;1.55;;;1.45;;
59828;SDS011;45708;51.848;107.620;2022-09-09T20:16:25;1.40;;;1.30;;
59828;SDS011;45708;51.848;107.620;2022-09-09T20:21:29;2.08;;;1.20;;
59828;SDS011;45708;51.848;107.620;2022-09-09T20:26:35;3.35;;;1.58;;
59828;SDS011;45708;51.848;107.620;2022-09-09T20:31:37;1.52;;;1.38;;
59828;SDS011;45708;51.848;107.620;2022-09-09T20:36:39;3.00;;;1.70;;
59828;SDS011;45708;51.848;107.620;2022-09-09T20:41:40;2.15;;;1.38;;
59828;SDS011;45708;51.848;107.620;2022-09-09T20:46:43;2.40;;;1.60;;
59828;SDS011;45708;51.848;107.620;2022-09-09T20:51:48;1.42;;;1.33;;
59828;SDS011;45708;51.848;107.620;2022-09-09T20:56:50;1.65;;;1.55;;
59828;SDS011;45708;51.848;107.620;2022-09-09T21:01:52;3.25;;;1.88;;
59828;SDS011;45708;51.848;107.620;2022-09-09T21:06:54;4.28;;;1.92;;
59828;SDS011;45708;51.848;107.620;2022-09-09T21:11:55;2.75;;;1.95;;
59828;SDS011;45708;51.848;107.620;2022-09-09T21:16:55;1.80;;;1.70;;
59828;SDS011;45708;51.848;107.620;2022-09-09T21:21:58;4.40;;;1.90;;
59828;SDS011;45708;51.848;107.620;2022-09-09T21:26:59;1.77;;;1.67;;
59828;SDS011;45708;51.848;107.620;2022-09-09T21:32:00;3.00;;;2.13;;
59828;SDS011;45708;51.848;107.620;2022-09-09T21:37:01;2.78;;;2.20;;
59828;SDS011;45708;51.848;107.620;2022-09-09T21:42:01;3.20;;;1.75;;
59828;SDS011;45708;51.848;107.620;2022-09-09T21:47:02;4.60;;;2.08;;
59828;SDS011;45708;51.848;107.620;2022-09-09T21:52:03;4.97;;;2.03;;
59828;SDS011;45708;51.848;107.620;2022-09-09T21:57:04;2.45;;;1.90;;
59828;SDS011;45708;51.848;107.620;2022-09-09T22:02:05;2.83;;;2.03;;
59828;SDS011;45708;51.848;107.620;2022-09-09T22:07:06;2.22;;;1.67;;
59828;SDS011;45708;51.848;107.620;2022-09-09T22:12:06;3.50;;;2.30;;
59828;SDS011;45708;51.848;107.620;2022-09-09T22:17:07;2.83;;;1.88;;
59828;SDS011;45708;51.848;107.620;2022-09-09T22:22:08;5.00;;;2.35;;
59828;SDS011;45708;51.848;107.620;2022-09-09T22:27:11;1.98;;;1.75;;
59828;SDS011;45708;51.848;107.620;2022-09-09T22:32:12;7.10;;;2.17;;
59828;SDS011;45708;51.848;107.620;2022-09-09T22:37:13;2.80;;;2.28;;
59828;SDS011;45708;51.848;107.620;2022-09-09T22:42:14;3.03;;;2.00;;
59828;SDS011;45708;51.848;107.620;2022-09-09T22:47:15;2.20;;;1.85;;
59828;SDS011;45708;51.848;107.620;2022-09-09T22:52:16;2.30;;;2.05;;
59828;SDS011;45708;51.848;107.620;2022-09-09T22:57:17;2.35;;;1.73;;
59828;SDS011;45708;51.848;107.620;2022-09-09T23:02:18;2.72;;;2.20;;
59828;SDS011;45708;51.848;107.620;2022-09-09T23:07:19;2.80;;;2.10;;
59828;SDS011;45708;51.848;107.620;2022-09-09T23:12:19;3.42;;;3.00;;
59828;SDS011;45708;51.848;107.620;2022-09-09T23:17:20;3.38;;;2.35;;
59828;SDS011;45708;51.848;107.620;2022-09-09T23:22:22;2.97;;;2.33;;
59828;SDS011;45708;51.848;107.620;2022-09-09T23:27:23;3.03;;;2.20;;
59828;SDS011;45708;51.848;107.620;2022-09-09T23:32:24;2.80;;;2.08;;
59828;SDS011;45708;51.848;107.620;2022-09-09T23:37:25;3.45;;;2.08;;
59828;SDS011;45708;51.848;107.620;2022-09-09T23:42:26;4.15;;;2.78;;
59828;SDS011;45708;51.848;107.620;2022-09-09T23:47:27;2.97;;;2.67;;
59828;SDS011;45708;51.848;107.620;2022-09-09T23:52:27;4.38;;;2.65;;
59828;SDS011;45708;51.848;107.620;2022-09-09T23:57:28;5.50;;;3.03;;
